Time;durP1;ratioP1;P1;durP2;ratioP2;P2;SDS_P1;SDS_P2;PMS_P1;PMS_P2;Temp;Humidity;BMP_temperature;BMP_pressure;BME280_temperature;BME280_humidity;BME280_pressure;Samples;Min_cycle;Max_cycle;Signal;HPM_P1;HPM_P2
2022/04/15 00:01:09;;;;;;;12.10;9.25;;;;;;;;;;5048281;28;20104;-80
2022/04/15 00:03:37;;;;;;;14.43;9.48;;;;;;;;;;5048296;28;20048;-80
2022/04/15 00:06:10;;;;;;;17.10;9.68;;;;;;;;;;5050803;28;20057;-80
2022/04/15 00:08:38;;;;;;;13.90;8.40;;;;;;;;;;5052712;28;20465;-80
2022/04/15 00:11:07;;;;;;;16.33;9.00;;;;;;;;;;5049792;28;20787;-81
2022/04/15 00:13:35;;;;;;;16.90;9.23;;;;;;;;;;5052418;28;20076;-80
2022/04/15 00:16:07;;;;;;;12.55;8.40;;;;;;;;;;5051370;28;20188;-81
2022/04/15 00:18:37;;;;;;;16.75;9.48;;;;;;;;;;5052332;28;20071;-81
2022/04/15 00:21:09;;;;;;;14.38;9.20;;;;;;;;;;5046749;28;20125;-81
2022/04/15 00:23:37;;;;;;;12.55;9.00;;;;;;;;;;5056422;28;20144;-80
2022/04/15 00:26:08;;;;;;;14.88;9.90;;;;;;;;;;5059641;28;20172;-80
2022/04/15 00:28:36;;;;;;;15.05;9.15;;;;;;;;;;5058423;28;20049;-80
2022/04/15 00:31:07;;;;;;;16.70;9.77;;;;;;;;;;5058886;28;20052;-80
2022/04/15 00:33:37;;;;;;;15.35;8.95;;;;;;;;;;5058480;28;20037;-80
2022/04/15 00:36:08;;;;;;;15.35;9.27;;;;;;;;;;5061676;28;20109;-80
2022/04/15 00:38:37;;;;;;;17.55;9.55;;;;;;;;;;5054868;28;20471;-80
2022/04/15 00:41:08;;;;;;;14.68;9.57;;;;;;;;;;5062048;28;20089;-80
2022/04/15 00:43:37;;;;;;;18.60;9.23;;;;;;;;;;5061966;28;20056;-80
2022/04/15 00:46:08;;;;;;;20.52;10.15;;;;;;;;;;5062478;28;20124;-80
2022/04/15 00:48:38;;;;;;;16.27;8.98;;;;;;;;;;5063538;28;20060;-80
2022/04/15 00:51:07;;;;;;;16.05;9.73;;;;;;;;;;5065554;28;20064;-80
2022/04/15 00:53:35;;;;;;;16.10;10.60;;;;;;;;;;5070277;28;20055;-80
2022/04/15 00:56:07;;;;;;;17.98;11.15;;;;;;;;;;5063323;28;20073;-80
2022/04/15 00:58:37;;;;;;;16.48;10.85;;;;;;;;;;5058990;28;20049;-81
2022/04/15 01:01:06;;;;;;;20.60;9.98;;;;;;;;;;5054920;28;20068;-81
2022/04/15 01:03:34;;;;;;;22.10;11.20;;;;;;;;;;5048121;28;20053;-80
2022/04/15 01:06:07;;;;;;;17.10;10.45;;;;;;;;;;5059549;28;20053;-80
2022/04/15 01:08:38;;;;;;;16.02;10.30;;;;;;;;;;5057585;28;20408;-80
2022/04/15 01:11:08;;;;;;;17.85;10.80;;;;;;;;;;5056267;28;20077;-80
2022/04/15 01:13:38;;;;;;;20.70;10.48;;;;;;;;;;5051853;28;20045;-81
2022/04/15 01:16:07;;;;;;;18.05;10.23;;;;;;;;;;5058715;28;20051;-81
2022/04/15 01:18:35;;;;;;;15.25;10.20;;;;;;;;;;5058844;28;20076;-80
2022/04/15 01:21:08;;;;;;;16.30;10.25;;;;;;;;;;5053221;28;20053;-80
2022/04/15 01:23:41;;;;;;;17.60;10.40;;;;;;;;;;5053154;28;20136;-81
2022/04/15 01:26:09;;;;;;;18.25;10.88;;;;;;;;;;5059548;28;20072;-80
2022/04/15 01:28:38;;;;;;;18.23;11.10;;;;;;;;;;5055308;28;20156;-81
2022/04/15 01:31:09;;;;;;;17.08;10.70;;;;;;;;;;5057285;28;20096;-81
2022/04/15 01:33:37;;;;;;;15.20;10.15;;;;;;;;;;5062398;28;20053;-81
2022/04/15 01:36:08;;;;;;;18.85;11.98;;;;;;;;;;5062311;28;20132;-81
2022/04/15 01:38:38;;;;;;;18.88;11.27;;;;;;;;;;5056028;28;20118;-81
2022/04/15 01:41:06;;;;;;;17.70;11.50;;;;;;;;;;5059875;28;20084;-81
2022/04/15 01:43:35;;;;;;;16.10;10.98;;;;;;;;;;5060501;28;20508;-81
2022/04/15 01:46:08;;;;;;;18.38;10.27;;;;;;;;;;5052344;28;20043;-81
2022/04/15 01:48:36;;;;;;;15.00;10.10;;;;;;;;;;5058747;28;20052;-81
2022/04/15 01:51:07;;;;;;;15.60;10.48;;;;;;;;;;5061191;28;20139;-80
2022/04/15 01:53:36;;;;;;;16.85;10.18;;;;;;;;;;5061084;28;20132;-81
2022/04/15 01:56:08;;;;;;;16.58;11.18;;;;;;;;;;5060692;28;20076;-81
2022/04/15 01:58:36;;;;;;;19.50;10.48;;;;;;;;;;5060876;28;20076;-81
2022/04/15 02:01:08;;;;;;;20.60;12.48;;;;;;;;;;5053480;28;20172;-81
2022/04/15 02:03:36;;;;;;;18.60;11.88;;;;;;;;;;5053731;28;20546;-81
2022/04/15 02:06:08;;;;;;;18.05;11.18;;;;;;;;;;5059917;28;20109;-80
2022/04/15 02:08:36;;;;;;;15.93;10.52;;;;;;;;;;5058684;28;20499;-81
2022/04/15 02:11:08;;;;;;;17.70;11.57;;;;;;;;;;5059578;28;20091;-81
2022/04/15 02:13:37;;;;;;;17.70;11.38;;;;;;;;;;5045514;28;20069;-81
2022/04/15 02:16:08;;;;;;;18.33;11.27;;;;;;;;;;5061629;28;20072;-81
2022/04/15 02:18:37;;;;;;;18.05;11.43;;;;;;;;;;5061382;28;20049;-81
2022/04/15 02:21:08;;;;;;;18.27;10.85;;;;;;;;;;5055119;28;20120;-81
2022/04/15 02:23:36;;;;;;;15.95;11.02;;;;;;;;;;5058216;28;20124;-81
2022/04/15 02:26:09;;;;;;;16.00;11.15;;;;;;;;;;5051256;28;20045;-81
2022/04/15 02:28:37;;;;;;;20.73;12.80;;;;;;;;;;5061360;28;20071;-81
2022/04/15 02:31:08;;;;;;;19.15;12.00;;;;;;;;;;5058579;28;20082;-81
2022/04/15 02:33:37;;;;;;;18.92;12.43;;;;;;;;;;5061375;28;20912;-81
2022/04/15 02:36:08;;;;;;;19.65;11.73;;;;;;;;;;5061032;28;20079;-81
2022/04/15 02:38:36;;;;;;;22.08;12.32;;;;;;;;;;5053766;28;20060;-80
2022/04/15 02:41:09;;;;;;;20.90;13.15;;;;;;;;;;5052895;28;20053;-80
2022/04/15 02:43:39;;;;;;;20.35;12.85;;;;;;;;;;5060158;28;20104;-81
2022/04/15 02:46:08;;;;;;;23.50;13.38;;;;;;;;;;5059685;28;20053;-81
2022/04/15 02:48:37;;;;;;;22.77;13.85;;;;;;;;;;5062217;28;20049;-81
2022/04/15 02:51:09;;;;;;;21.55;13.13;;;;;;;;;;5053668;28;20052;-80
2022/04/15 02:53:37;;;;;;;22.58;12.85;;;;;;;;;;5062110;28;20083;-80
2022/04/15 02:56:10;;;;;;;26.15;13.63;;;;;;;;;;5062721;28;20074;-81
2022/04/15 02:58:38;;;;;;;23.92;13.48;;;;;;;;;;5061074;28;20076;-81
2022/04/15 03:01:06;;;;;;;19.75;12.68;;;;;;;;;;5054975;28;20056;-80
2022/04/15 03:03:35;;;;;;;20.08;13.05;;;;;;;;;;5059964;28;20043;-81
2022/04/15 03:06:06;;;;;;;26.73;14.45;;;;;;;;;;5057297;28;20773;-81
2022/04/15 03:08:35;;;;;;;20.27;12.40;;;;;;;;;;5059383;28;20132;-81
2022/04/15 03:11:07;;;;;;;23.83;13.80;;;;;;;;;;5061471;28;20055;-81
2022/04/15 03:13:37;;;;;;;25.85;14.07;;;;;;;;;;5060745;28;20048;-81
2022/04/15 03:16:09;;;;;;;21.65;13.05;;;;;;;;;;5060047;28;20048;-81
2022/04/15 03:18:37;;;;;;;26.73;14.32;;;;;;;;;;5060211;28;20045;-81
2022/04/15 03:21:09;;;;;;;25.42;14.00;;;;;;;;;;5062574;28;20145;-81
2022/04/15 03:23:39;;;;;;;28.40;13.85;;;;;;;;;;5060933;28;20123;-81
2022/04/15 03:26:07;;;;;;;25.20;14.25;;;;;;;;;;5058343;28;20084;-80
2022/04/15 03:28:37;;;;;;;25.05;14.00;;;;;;;;;;5057703;28;20485;-80
2022/04/15 03:31:10;;;;;;;25.95;14.35;;;;;;;;;;5061288;28;20192;-80
2022/04/15 03:33:39;;;;;;;24.23;13.63;;;;;;;;;;5062045;28;20045;-80
2022/04/15 03:36:08;;;;;;;24.63;13.80;;;;;;;;;;5041479;28;20095;-81
2022/04/15 03:38:37;;;;;;;29.77;13.85;;;;;;;;;;5054840;28;20420;-81
2022/04/15 03:41:08;;;;;;;21.75;13.32;;;;;;;;;;5052580;28;20053;-81
2022/04/15 03:43:38;;;;;;;25.70;14.07;;;;;;;;;;5052872;28;20075;-81
2022/04/15 03:46:07;;;;;;;25.98;14.40;;;;;;;;;;5056044;28;20503;-81
2022/04/15 03:48:35;;;;;;;26.70;14.02;;;;;;;;;;5057987;28;20511;-81
2022/04/15 03:51:07;;;;;;;24.77;13.25;;;;;;;;;;5060937;28;20084;-81
2022/04/15 03:53:36;;;;;;;24.73;13.23;;;;;;;;;;5057775;28;20049;-80
2022/04/15 03:56:07;;;;;;;23.58;14.75;;;;;;;;;;5056334;28;20500;-80
2022/04/15 03:58:35;;;;;;;24.38;14.02;;;;;;;;;;5055598;28;20075;-81
2022/04/15 04:01:07;;;;;;;27.45;13.90;;;;;;;;;;5059813;28;20052;-81
2022/04/15 04:03:36;;;;;;;28.17;14.70;;;;;;;;;;5048120;28;20049;-81
2022/04/15 04:06:08;;;;;;;27.60;13.77;;;;;;;;;;5059312;28;20108;-81
2022/04/15 04:08:36;;;;;;;22.73;12.98;;;;;;;;;;5059666;28;20068;-81
2022/04/15 04:11:07;;;;;;;22.55;13.48;;;;;;;;;;5052771;28;20071;-80
2022/04/15 04:13:35;;;;;;;27.02;14.55;;;;;;;;;;5059204;28;20081;-80
2022/04/15 04:16:07;;;;;;;23.25;13.90;;;;;;;;;;5058585;28;20049;-81
2022/04/15 04:18:35;;;;;;;24.38;14.23;;;;;;;;;;5051431;28;20052;-81
2022/04/15 04:21:11;;;;;;;28.65;14.82;;;;;;;;;;5049015;28;20053;-81
2022/04/15 04:23:39;;;;;;;26.90;15.13;;;;;;;;;;5059496;28;20127;-81
2022/04/15 04:26:08;;;;;;;26.58;15.55;;;;;;;;;;5060658;28;20076;-80
2022/04/15 04:28:36;;;;;;;28.90;15.32;;;;;;;;;;5057371;28;20061;-80
2022/04/15 04:31:09;;;;;;;23.95;13.75;;;;;;;;;;5059314;28;20503;-80
2022/04/15 04:33:37;;;;;;;26.75;16.13;;;;;;;;;;5056517;28;20048;-79
2022/04/15 04:36:08;;;;;;;28.75;15.15;;;;;;;;;;5045188;28;20477;-79
2022/04/15 04:38:37;;;;;;;26.42;15.52;;;;;;;;;;5048214;28;20489;-80
2022/04/15 04:41:08;;;;;;;28.50;15.40;;;;;;;;;;5057502;28;20136;-79
2022/04/15 04:43:36;;;;;;;28.90;14.32;;;;;;;;;;5050789;28;20616;-80
2022/04/15 04:46:09;;;;;;;27.25;16.20;;;;;;;;;;5051414;28;20053;-79
2022/04/15 04:48:37;;;;;;;32.25;15.90;;;;;;;;;;5052904;28;20053;-80
2022/04/15 04:51:08;;;;;;;27.10;15.27;;;;;;;;;;5054666;28;20083;-80
2022/04/15 04:53:37;;;;;;;29.48;16.67;;;;;;;;;;5055353;28;20118;-80
2022/04/15 04:56:08;;;;;;;26.73;14.65;;;;;;;;;;5055076;28;20132;-79
2022/04/15 04:58:36;;;;;;;26.85;15.68;;;;;;;;;;5054193;28;20136;-80
2022/04/15 05:01:09;;;;;;;27.73;16.33;;;;;;;;;;5054269;28;20080;-79
2022/04/15 05:03:37;;;;;;;27.30;15.43;;;;;;;;;;5053207;28;20044;-80
2022/04/15 05:06:08;;;;;;;28.30;15.10;;;;;;;;;;5056633;28;20055;-80
2022/04/15 05:08:37;;;;;;;25.33;13.82;;;;;;;;;;5054152;28;20077;-80
2022/04/15 05:11:08;;;;;;;24.70;14.57;;;;;;;;;;5053676;28;20083;-80
2022/04/15 05:13:36;;;;;;;27.85;15.10;;;;;;;;;;5052319;28;20144;-79
2022/04/15 05:16:09;;;;;;;25.27;15.32;;;;;;;;;;5053159;28;20052;-79
2022/04/15 05:18:37;;;;;;;27.58;15.50;;;;;;;;;;5053151;28;20511;-80
2022/04/15 05:21:08;;;;;;;25.85;15.35;;;;;;;;;;5061231;28;20135;-80
2022/04/15 05:23:37;;;;;;;28.25;15.63;;;;;;;;;;5055126;28;20079;-80
2022/04/15 05:26:08;;;;;;;24.40;15.02;;;;;;;;;;5057559;28;20096;-80
2022/04/15 05:28:36;;;;;;;24.83;14.75;;;;;;;;;;5060883;28;20076;-80
2022/04/15 05:31:09;;;;;;;27.40;15.60;;;;;;;;;;5058554;28;20049;-80
2022/04/15 05:33:37;;;;;;;27.02;16.17;;;;;;;;;;5057304;28;20088;-80
2022/04/15 05:36:08;;;;;;;31.58;15.75;;;;;;;;;;5056295;28;20059;-80
2022/04/15 05:38:37;;;;;;;27.58;15.27;;;;;;;;;;5058625;28;20277;-82
2022/04/15 05:41:12;;;;;;;26.70;16.55;;;;;;;;;;5039459;28;20049;-83
2022/04/15 05:43:41;;;;;;;28.15;16.80;;;;;;;;;;5055938;28;20106;-82
2022/04/15 05:46:11;;;;;;;28.48;16.45;;;;;;;;;;5057400;28;20076;-83
2022/04/15 05:48:39;;;;;;;28.27;15.23;;;;;;;;;;5058015;28;20076;-83
2022/04/15 05:51:07;;;;;;;29.83;16.00;;;;;;;;;;5051851;28;20088;-83
2022/04/15 05:53:36;;;;;;;31.40;17.05;;;;;;;;;;5058170;28;20123;-80
2022/04/15 05:56:07;;;;;;;29.17;16.67;;;;;;;;;;5059394;28;20056;-80
2022/04/15 05:58:35;;;;;;;29.60;16.08;;;;;;;;;;5059774;28;20095;-80
2022/04/15 06:01:11;;;;;;;26.45;14.90;;;;;;;;;;5050768;28;20096;-80
2022/04/15 06:03:41;;;;;;;30.13;15.82;;;;;;;;;;5051469;28;20045;-79
2022/04/15 06:06:09;;;;;;;30.42;15.40;;;;;;;;;;5057080;28;20083;-80
2022/04/15 06:08:38;;;;;;;33.05;16.08;;;;;;;;;;5057892;28;20148;-80
2022/04/15 06:11:09;;;;;;;26.25;14.38;;;;;;;;;;5056479;28;20112;-80
2022/04/15 06:13:41;;;;;;;25.83;15.15;;;;;;;;;;5056612;28;20222;-80
2022/04/15 06:16:10;;;;;;;26.45;15.57;;;;;;;;;;5056713;28;20136;-80
2022/04/15 06:18:38;;;;;;;27.48;16.00;;;;;;;;;;5047924;28;20057;-80
2022/04/15 06:21:08;;;;;;;26.67;14.85;;;;;;;;;;5052553;28;20651;-80
2022/04/15 06:23:36;;;;;;;30.67;15.68;;;;;;;;;;5053705;28;20370;-80
2022/04/15 06:26:07;;;;;;;26.23;13.88;;;;;;;;;;5055967;28;20556;-80
2022/04/15 06:28:35;;;;;;;27.65;15.05;;;;;;;;;;5055458;28;20041;-80
2022/04/15 06:31:06;;;;;;;28.08;15.93;;;;;;;;;;5043395;28;21519;-80
2022/04/15 06:33:37;;;;;;;25.55;15.23;;;;;;;;;;5046546;28;20061;-80
2022/04/15 06:36:09;;;;;;;26.20;14.35;;;;;;;;;;5033665;28;20045;-80
2022/04/15 06:38:37;;;;;;;27.63;15.20;;;;;;;;;;5038733;28;20059;-80
2022/04/15 06:41:08;;;;;;;27.58;15.27;;;;;;;;;;5041477;28;20047;-80
2022/04/15 06:43:37;;;;;;;25.30;13.68;;;;;;;;;;5043349;28;20049;-80
2022/04/15 06:46:08;;;;;;;27.38;13.23;;;;;;;;;;5043349;28;20055;-80
2022/04/15 06:48:36;;;;;;;26.27;14.32;;;;;;;;;;5045625;28;20116;-80
2022/04/15 06:51:09;;;;;;;22.75;13.60;;;;;;;;;;5039348;28;20147;-80
2022/04/15 06:53:37;;;;;;;26.13;14.55;;;;;;;;;;5048040;28;20566;-80
2022/04/15 06:56:10;;;;;;;28.80;14.40;;;;;;;;;;5046799;28;20051;-80
2022/04/15 06:58:38;;;;;;;27.63;14.50;;;;;;;;;;5041600;28;20052;-80
2022/04/15 07:01:07;;;;;;;26.60;14.55;;;;;;;;;;5042649;28;20091;-80
2022/04/15 07:03:35;;;;;;;26.38;14.90;;;;;;;;;;5042441;28;20055;-79
2022/04/15 07:06:07;;;;;;;28.23;15.10;;;;;;;;;;5024366;28;20118;-80
2022/04/15 07:08:36;;;;;;;25.90;15.55;;;;;;;;;;5018145;28;20068;-80
2022/04/15 07:11:08;;;;;;;27.35;14.98;;;;;;;;;;5024279;28;20600;-80
2022/04/15 07:13:39;;;;;;;26.25;14.55;;;;;;;;;;5028885;28;20053;-80
2022/04/15 07:16:07;;;;;;;31.45;15.82;;;;;;;;;;5023255;28;20667;-80
2022/04/15 07:18:36;;;;;;;29.83;15.68;;;;;;;;;;5020377;28;20080;-80
2022/04/15 07:21:07;;;;;;;23.73;14.35;;;;;;;;;;5021767;28;20132;-80
2022/04/15 07:23:37;;;;;;;28.95;14.98;;;;;;;;;;5020594;28;20050;-80
2022/04/15 07:26:08;;;;;;;29.83;14.73;;;;;;;;;;5018091;28;20054;-80
2022/04/15 07:28:36;;;;;;;28.08;15.02;;;;;;;;;;5020864;28;20045;-82
2022/04/15 07:31:10;;;;;;;28.85;15.18;;;;;;;;;;5020604;28;20145;-83
2022/04/15 07:33:38;;;;;;;29.38;15.15;;;;;;;;;;5021218;28;21579;-83
2022/04/15 07:36:31;;;;;;;27.95;15.73;;;;;;;;;;5025048;28;20460;-82
2022/04/15 07:38:57;;;;;;;33.00;16.73;;;;;;;;;;5020115;28;20345;-83
2022/04/15 07:41:25;;;;;;;29.75;16.63;;;;;;;;;;5023871;28;20477;-81
2022/04/15 07:43:54;;;;;;;31.20;16.83;;;;;;;;;;5023464;28;20442;-80
2022/04/15 07:46:22;;;;;;;32.30;16.60;;;;;;;;;;5017666;28;20057;-80
2022/04/15 07:48:51;;;;;;;35.20;17.85;;;;;;;;;;5025230;28;20065;-80
2022/04/15 07:51:19;;;;;;;31.52;17.27;;;;;;;;;;5021328;28;20050;-80
2022/04/15 07:53:48;;;;;;;35.13;18.15;;;;;;;;;;5025346;28;20044;-81
2022/04/15 07:56:17;;;;;;;30.20;16.88;;;;;;;;;;5021042;28;20069;-80
2022/04/15 07:58:46;;;;;;;29.08;16.88;;;;;;;;;;5026054;28;20091;-80
2022/04/15 08:01:14;;;;;;;31.45;16.63;;;;;;;;;;5017957;28;20123;-80
2022/04/15 08:03:42;;;;;;;33.78;17.35;;;;;;;;;;5023628;28;20116;-81
2022/04/15 08:06:11;;;;;;;30.42;17.20;;;;;;;;;;5045180;28;20514;-81
2022/04/15 08:08:39;;;;;;;27.30;16.05;;;;;;;;;;5042773;28;20049;-81
2022/04/15 08:11:07;;;;;;;30.45;16.58;;;;;;;;;;5040376;28;20143;-83
2022/04/15 08:13:37;;;;;;;29.55;15.95;;;;;;;;;;5039970;28;20138;-82
2022/04/15 08:16:09;;;;;;;28.33;15.35;;;;;;;;;;5041337;28;20142;-82
2022/04/15 08:18:37;;;;;;;28.23;16.67;;;;;;;;;;5042205;28;20176;-82
2022/04/15 08:21:08;;;;;;;29.10;15.98;;;;;;;;;;5046675;28;20095;-82
2022/04/15 08:23:37;;;;;;;32.17;16.65;;;;;;;;;;5040042;28;20128;-82
2022/04/15 08:26:08;;;;;;;25.88;15.25;;;;;;;;;;5045808;28;20053;-82
2022/04/15 08:28:38;;;;;;;28.13;14.07;;;;;;;;;;5045592;28;20131;-82
2022/04/15 08:31:10;;;;;;;27.65;14.52;;;;;;;;;;5046192;28;20053;-82
2022/04/15 08:33:39;;;;;;;26.77;13.68;;;;;;;;;;5042286;28;20056;-82
2022/04/15 08:36:07;;;;;;;23.65;13.43;;;;;;;;;;5039264;28;20456;-82
2022/04/15 08:38:35;;;;;;;24.40;13.50;;;;;;;;;;5042673;28;20073;-83
2022/04/15 08:41:08;;;;;;;29.15;14.20;;;;;;;;;;5044898;28;20161;-83
2022/04/15 08:43:38;;;;;;;23.42;13.82;;;;;;;;;;5044350;28;20049;-83
2022/04/15 08:46:10;;;;;;;25.98;12.75;;;;;;;;;;5048316;28;20049;-83
2022/04/15 08:48:39;;;;;;;20.42;12.77;;;;;;;;;;5046340;28;20353;-83
2022/04/15 08:51:08;;;;;;;23.45;12.55;;;;;;;;;;5045979;28;20854;-83
2022/04/15 08:53:38;;;;;;;22.15;11.65;;;;;;;;;;5047599;28;20049;-83
2022/04/15 08:56:09;;;;;;;20.27;11.48;;;;;;;;;;5046416;28;20118;-82
2022/04/15 08:58:39;;;;;;;25.15;12.13;;;;;;;;;;5044629;28;20140;-82
2022/04/15 09:01:08;;;;;;;20.27;11.43;;;;;;;;;;5049265;28;20160;-83
2022/04/15 09:03:36;;;;;;;19.55;11.57;;;;;;;;;;5049831;28;20106;-83
2022/04/15 09:06:14;;;;;;;20.15;11.02;;;;;;;;;;5048698;28;20168;-83
2022/04/15 09:08:57;;;;;;;18.42;9.93;;;;;;;;;;5042099;28;20156;-83
2022/04/15 09:11:30;;;;;;;21.23;11.07;;;;;;;;;;5046794;28;20485;-83
2022/04/15 09:14:02;;;;;;;19.13;10.48;;;;;;;;;;5048503;28;20045;-82
2022/04/15 09:16:32;;;;;;;15.55;9.70;;;;;;;;;;5050164;28;20533;-83
2022/04/15 09:19:00;;;;;;;12.50;8.52;;;;;;;;;;5049385;28;20068;-83
2022/04/15 09:21:29;;;;;;;11.70;7.93;;;;;;;;;;5050172;28;20159;-83
2022/04/15 09:23:58;;;;;;;11.65;7.70;;;;;;;;;;5049613;28;20037;-82
2022/04/15 09:26:27;;;;;;;12.88;7.90;;;;;;;;;;5042255;28;20052;-84
2022/04/15 09:28:56;;;;;;;18.05;8.18;;;;;;;;;;5045471;28;20128;-82
2022/04/15 09:31:26;;;;;;;9.35;5.93;;;;;;;;;;5041556;28;20088;-82
2022/04/15 09:33:55;;;;;;;7.32;4.90;;;;;;;;;;5050366;28;20057;-82
2022/04/15 09:36:27;;;;;;;7.38;4.60;;;;;;;;;;5049706;28;20053;-82
2022/04/15 09:38:59;;;;;;;5.50;3.92;;;;;;;;;;5049340;28;20991;-82
2022/04/15 09:41:29;;;;;;;6.68;3.97;;;;;;;;;;5045803;28;20084;-83
2022/04/15 09:43:58;;;;;;;7.15;4.25;;;;;;;;;;5032115;28;20102;-82
2022/04/15 09:46:30;;;;;;;8.70;5.57;;;;;;;;;;5049857;28;20159;-82
2022/04/15 09:49:03;;;;;;;6.88;4.00;;;;;;;;;;5048576;28;20057;-82
2022/04/15 09:51:34;;;;;;;9.13;5.10;;;;;;;;;;5037620;28;20108;-82
2022/04/15 09:54:12;;;;;;;12.63;6.53;;;;;;;;;;5038151;28;20089;-82
2022/04/15 09:56:43;;;;;;;11.20;6.30;;;;;;;;;;5049796;28;20044;-82
2022/04/15 09:59:13;;;;;;;9.68;6.15;;;;;;;;;;5045082;28;20099;-82
2022/04/15 10:01:45;;;;;;;10.73;5.35;;;;;;;;;;5050171;28;20091;-82
2022/04/15 10:04:14;;;;;;;11.38;6.35;;;;;;;;;;5049317;28;20068;-82
2022/04/15 10:06:44;;;;;;;13.18;7.03;;;;;;;;;;5049663;28;20480;-82
2022/04/15 10:09:13;;;;;;;10.32;6.07;;;;;;;;;;5049102;28;20135;-82
2022/04/15 10:11:42;;;;;;;9.95;6.25;;;;;;;;;;5049493;28;20119;-82
2022/04/15 10:14:11;;;;;;;10.65;6.20;;;;;;;;;;5049974;28;20057;-82
2022/04/15 10:16:40;;;;;;;8.38;5.00;;;;;;;;;;5037501;28;20140;-82
2022/04/15 10:19:11;;;;;;;11.15;5.75;;;;;;;;;;5028758;28;20460;-82
2022/04/15 10:21:42;;;;;;;11.85;6.85;;;;;;;;;;5030005;28;20053;-82
2022/04/15 10:24:10;;;;;;;10.30;6.32;;;;;;;;;;5042504;28;20299;-82
2022/04/15 10:26:41;;;;;;;9.50;5.90;;;;;;;;;;5049855;28;20056;-82
2022/04/15 10:29:09;;;;;;;10.88;6.45;;;;;;;;;;5049496;28;20068;-82
2022/04/15 10:31:39;;;;;;;9.65;5.53;;;;;;;;;;5049243;28;20349;-82
2022/04/15 10:34:16;;;;;;;8.88;6.13;;;;;;;;;;5033259;28;20481;-82
2022/04/15 10:36:45;;;;;;;7.28;4.90;;;;;;;;;;5042027;28;20049;-82
2022/04/15 10:39:17;;;;;;;8.80;5.10;;;;;;;;;;5048810;28;20049;-82
2022/04/15 10:41:57;;;;;;;10.15;6.00;;;;;;;;;;5042406;28;20281;-82
2022/04/15 10:44:26;;;;;;;9.40;5.78;;;;;;;;;;5029833;28;20153;-82
2022/04/15 10:46:58;;;;;;;10.45;5.90;;;;;;;;;;5047965;28;20048;-82
2022/04/15 10:49:30;;;;;;;9.50;5.70;;;;;;;;;;5045897;28;20059;-82
2022/04/15 10:52:02;;;;;;;8.73;5.50;;;;;;;;;;5028926;28;20056;-82
2022/04/15 10:54:31;;;;;;;9.13;5.95;;;;;;;;;;5029036;28;20057;-82
2022/04/15 10:57:01;;;;;;;7.28;4.38;;;;;;;;;;5029315;28;20128;-82
2022/04/15 11:02:19;;;;;;;10.82;5.55;;;;;;;;;;5029119;28;20084;-82
2022/04/15 11:04:55;;;;;;;8.43;4.90;;;;;;;;;;5029103;28;20065;-82
2022/04/15 11:07:27;;;;;;;8.38;5.13;;;;;;;;;;5028894;28;20049;-82
2022/04/15 11:09:55;;;;;;;8.00;4.43;;;;;;;;;;5028211;28;20095;-82
2022/04/15 11:12:30;;;;;;;8.27;4.32;;;;;;;;;;5030562;28;20053;-82
2022/04/15 11:14:59;;;;;;;9.70;5.32;;;;;;;;;;5048718;28;20053;-82
2022/04/15 11:17:38;;;;;;;8.55;5.30;;;;;;;;;;5048534;28;20059;-82
2022/04/15 11:20:09;;;;;;;7.13;5.25;;;;;;;;;;5048257;28;20144;-82
2022/04/15 11:22:40;;;;;;;8.70;5.28;;;;;;;;;;5048577;28;20639;-82
2022/04/15 11:25:10;;;;;;;8.57;4.97;;;;;;;;;;5029086;28;20172;-82
2022/04/15 11:27:39;;;;;;;11.20;6.05;;;;;;;;;;5028837;28;20089;-82
2022/04/15 11:30:14;;;;;;;7.72;4.55;;;;;;;;;;5028325;28;20091;-82
2022/04/15 11:32:51;;;;;;;9.27;5.43;;;;;;;;;;5028534;28;20496;-82
2022/04/15 11:35:30;;;;;;;6.75;5.30;;;;;;;;;;5029909;28;20091;-82
2022/04/15 11:38:03;;;;;;;10.23;5.38;;;;;;;;;;5047986;28;20052;-82
2022/04/15 11:40:34;;;;;;;10.70;6.32;;;;;;;;;;5045514;28;20385;-82
2022/04/15 11:43:03;;;;;;;8.75;4.95;;;;;;;;;;5044889;28;20048;-82
2022/04/15 11:45:32;;;;;;;8.95;5.50;;;;;;;;;;5047987;28;20485;-81
2022/04/15 11:48:15;;;;;;;9.00;5.70;;;;;;;;;;5047100;28;20493;-82
2022/04/15 11:50:45;;;;;;;11.50;5.70;;;;;;;;;;5048504;28;20045;-82
2022/04/15 11:53:14;;;;;;;6.50;4.82;;;;;;;;;;5047622;28;20088;-82
2022/04/15 11:55:49;;;;;;;6.85;4.70;;;;;;;;;;5047612;28;20132;-82
2022/04/15 11:58:17;;;;;;;;;;;;;;;;;;5038808;28;20053;-82
2022/04/15 12:00:51;;;;;;;8.35;3.78;;;;;;;;;;5027772;28;19975;-82
2022/04/15 12:03:20;;;;;;;6.27;4.03;;;;;;;;;;5042379;28;20127;-82
2022/04/15 12:05:50;;;;;;;7.05;4.32;;;;;;;;;;5047521;28;20353;-82
2022/04/15 12:08:19;;;;;;;12.13;5.32;;;;;;;;;;5047349;28;20057;-82
2022/04/15 12:10:48;;;;;;;6.57;4.78;;;;;;;;;;5048500;28;20071;-82
2022/04/15 12:13:18;;;;;;;6.05;4.07;;;;;;;;;;5047589;28;20641;-82
2022/04/15 12:15:46;;;;;;;6.35;4.03;;;;;;;;;;5034353;28;20075;-82
2022/04/15 12:18:16;;;;;;;7.75;4.22;;;;;;;;;;5026474;28;20057;-82
2022/04/15 12:20:44;;;;;;;8.13;3.67;;;;;;;;;;5027839;28;20491;-81
2022/04/15 12:23:15;;;;;;;5.78;3.35;;;;;;;;;;5032723;28;20047;-82
2022/04/15 12:31:29;;;;;;;7.25;3.10;;;;;;;;;;5045249;28;20085;-82
2022/04/15 12:33:58;;;;;;;6.20;3.63;;;;;;;;;;5027823;28;20085;-82
2022/04/15 12:36:26;;;;;;;4.60;3.10;;;;;;;;;;5038858;28;20080;-82
2022/04/15 12:38:59;;;;;;;7.03;3.92;;;;;;;;;;5047023;28;20099;-82
2022/04/15 12:41:41;;;;;;;5.43;3.40;;;;;;;;;;5047440;28;20087;-82
2022/04/15 12:44:17;;;;;;;6.55;4.18;;;;;;;;;;5047243;28;20049;-82
2022/04/15 12:46:46;;;;;;;6.07;3.95;;;;;;;;;;5048323;28;20080;-82
2022/04/15 12:49:24;;;;;;;4.70;3.28;;;;;;;;;;5038582;28;20080;-83
2022/04/15 12:51:53;;;;;;;7.13;4.03;;;;;;;;;;5034830;28;20122;-82
2022/04/15 12:54:23;;;;;;;5.72;3.70;;;;;;;;;;5047403;28;20429;-82
2022/04/15 12:56:55;;;;;;;6.15;3.40;;;;;;;;;;5047120;28;20132;-82
2022/04/15 12:59:23;;;;;;;4.68;3.38;;;;;;;;;;5047247;28;20087;-81
2022/04/15 13:01:52;;;;;;;3.97;3.20;;;;;;;;;;5052447;28;20073;-82
2022/04/15 13:04:21;;;;;;;5.63;3.90;;;;;;;;;;5053595;28;20053;-82
2022/04/15 13:06:49;;;;;;;7.50;3.53;;;;;;;;;;5039827;28;20592;-82
2022/04/15 13:09:20;;;;;;;7.70;3.88;;;;;;;;;;5033634;28;20076;-82
2022/04/15 13:11:50;;;;;;;5.68;3.88;;;;;;;;;;5033345;28;20100;-82
2022/04/15 13:14:18;;;;;;;5.22;3.67;;;;;;;;;;5033758;28;20061;-82
2022/04/15 13:16:46;;;;;;;6.78;3.60;;;;;;;;;;5033167;28;20081;-82
2022/04/15 13:19:16;;;;;;;6.35;3.20;;;;;;;;;;5031906;28;20058;-82
2022/04/15 13:21:44;;;;;;;8.23;3.90;;;;;;;;;;5032528;28;20523;-82
2022/04/15 13:24:12;;;;;;;5.13;3.40;;;;;;;;;;5042221;28;20164;-82
2022/04/15 13:26:41;;;;;;;3.75;2.88;;;;;;;;;;5047734;28;20088;-82
2022/04/15 13:29:11;;;;;;;4.32;2.45;;;;;;;;;;5050574;28;20049;-82
2022/04/15 13:31:39;;;;;;;5.38;3.70;;;;;;;;;;5051938;28;20140;-82
2022/04/15 13:34:07;;;;;;;6.18;4.25;;;;;;;;;;5054315;28;20061;-82
2022/04/15 13:36:36;;;;;;;5.03;3.20;;;;;;;;;;5052219;28;20053;-82
2022/04/15 13:39:04;;;;;;;6.95;3.50;;;;;;;;;;5053969;28;20048;-82
2022/04/15 13:41:33;;;;;;;7.13;4.03;;;;;;;;;;5039992;28;20082;-82
2022/04/15 13:44:01;;;;;;;4.78;3.00;;;;;;;;;;5054176;28;20555;-82
2022/04/15 13:46:31;;;;;;;4.93;3.75;;;;;;;;;;5053923;28;20144;-81
2022/04/15 13:49:00;;;;;;;4.32;3.40;;;;;;;;;;5053246;28;20084;-82
2022/04/15 13:51:29;;;;;;;4.40;3.03;;;;;;;;;;5054122;28;20132;-82
2022/04/15 13:56:43;;;;;;;5.82;3.38;;;;;;;;;;5049355;28;20544;-82
2022/04/15 13:59:12;;;;;;;6.60;3.65;;;;;;;;;;5033333;28;20493;-82
2022/04/15 14:01:44;;;;;;;5.55;3.50;;;;;;;;;;5033818;28;20085;-82
2022/04/15 14:04:14;;;;;;;7.88;4.10;;;;;;;;;;5033322;28;20067;-82
2022/04/15 14:06:42;;;;;;;7.22;3.97;;;;;;;;;;5033440;28;20056;-82
2022/04/15 14:09:11;;;;;;;6.82;3.60;;;;;;;;;;5033218;28;20179;-82
2022/04/15 14:11:40;;;;;;;11.52;3.50;;;;;;;;;;5033497;28;20091;-82
2022/04/15 14:14:10;;;;;;;4.70;3.45;;;;;;;;;;5043113;28;20064;-82
2022/04/15 14:16:38;;;;;;;6.18;3.42;;;;;;;;;;5033406;28;20053;-82
2022/04/15 14:19:11;;;;;;;5.90;3.53;;;;;;;;;;5035730;28;20057;-82
2022/04/15 14:21:40;;;;;;;5.28;3.63;;;;;;;;;;5053171;28;20122;-82
2022/04/15 14:24:08;;;;;;;6.90;3.88;;;;;;;;;;5052962;28;20052;-82
2022/04/15 14:26:37;;;;;;;4.35;2.88;;;;;;;;;;5054170;28;20163;-82
2022/04/15 14:29:05;;;;;;;6.45;3.47;;;;;;;;;;5053229;28;20077;-82
2022/04/15 14:31:34;;;;;;;5.13;3.25;;;;;;;;;;5042487;28;20497;-82
2022/04/15 14:34:02;;;;;;;5.40;2.92;;;;;;;;;;5033955;28;20409;-81
2022/04/15 14:36:34;;;;;;;6.97;3.92;;;;;;;;;;5045043;28;20049;-82
2022/04/15 14:39:02;;;;;;;7.28;3.83;;;;;;;;;;5052696;28;20508;-82
2022/04/15 14:41:31;;;;;;;6.85;3.40;;;;;;;;;;5054904;28;20470;-82
2022/04/15 14:43:59;;;;;;;5.68;3.17;;;;;;;;;;5055191;28;20056;-82
2022/04/15 14:46:28;;;;;;;7.18;3.72;;;;;;;;;;5057502;28;20143;-82
2022/04/15 14:48:56;;;;;;;4.40;3.00;;;;;;;;;;5043093;28;20139;-82
2022/04/15 14:51:24;;;;;;;5.00;3.05;;;;;;;;;;5038736;28;20053;-82
2022/04/15 14:53:54;;;;;;;5.50;3.42;;;;;;;;;;5038844;28;20072;-82